Terminal Aerodrome Forecast
Issued by NWS Duluth, MN

Home | Current Version | Previous Version | Text Only | Print | Product List | Glossary On
Versions: 1 2 3 4 5 6 7 8 9 10 11 12 13 14 15 16 17 18
284
FTUS43 KDLH 191751
TAFINL
TAF
KINL 191751Z 1918/2018 13007KT P6SM SCT110 BKN220
     FM200100 13010KT P6SM OVC150 WS020/17040KT
     FM200400 14012KT P6SM SCT035 OVC110 WS020/17045KT
     FM201400 13013G18KT 6SM -SHRA SCT025 BKN035 OVC060=

USA.gov is the U.S. government's official web portal to all federal, state and local government web resources and services.